Time;durP1;ratioP1;P1;durP2;ratioP2;P2;SDS_P1;SDS_P2;PMS_P1;PMS_P2;Temp;Humidity;BMP_temperature;BMP_pressure;BME280_temperature;BME280_humidity;BME280_pressure;Samples;Min_cycle;Max_cycle;Signal;HPM_P1;HPM_P2
2022/09/20 00:01:48;;;;;;;3.70;1.08;;;;;;;13.25;69.97;100614.00;10263679;28;20057;-73
2022/09/20 00:06:50;;;;;;;5.75;1.45;;;;;;;13.18;70.02;100626.19;10242563;28;20050;-72
2022/09/20 00:11:51;;;;;;;6.50;1.15;;;;;;;13.06;70.94;100626.28;10237650;28;20051;-75
2022/09/20 00:16:53;;;;;;;4.13;1.30;;;;;;;12.86;72.54;100629.78;10242971;28;20065;-73
2022/09/20 00:21:54;;;;;;;3.55;1.38;;;;;;;12.92;72.01;100623.91;10250050;28;20180;-75
2022/09/20 00:26:56;;;;;;;7.28;2.75;;;;;;;12.95;72.23;100626.31;10250519;28;20053;-75
2022/09/20 00:31:57;;;;;;;5.53;1.70;;;;;;;12.90;72.04;100623.22;10250231;28;20047;-74
2022/09/20 00:36:58;;;;;;;5.20;1.77;;;;;;;12.94;72.11;100623.78;10253479;28;20054;-75
2022/09/20 00:42:00;;;;;;;4.63;1.48;;;;;;;12.72;72.26;100617.59;10259289;28;20051;-74
2022/09/20 00:47:02;;;;;;;6.45;2.10;;;;;;;12.68;72.92;100619.66;10243867;28;20054;-76
2022/09/20 00:52:03;;;;;;;3.13;1.50;;;;;;;12.71;72.61;100621.22;10240546;28;20054;-75
2022/09/20 00:57:05;;;;;;;4.00;1.50;;;;;;;12.75;72.53;100616.50;10242708;28;20047;-73
2022/09/20 01:02:18;;;;;;;3.63;1.80;;;;;;;12.70;72.96;100625.72;10239579;28;20058;-74
2022/09/20 01:07:21;;;;;;;2.90;1.70;;;;;;;12.49;73.91;100625.69;10238715;28;20054;-75
2022/09/20 01:12:28;;;;;;;3.53;1.63;;;;;;;12.67;73.45;100619.78;10251052;28;20453;-76
2022/09/20 01:17:33;;;;;;;5.13;2.15;;;;;;;12.58;73.87;100626.75;10277387;28;20146;-75
2022/09/20 01:22:51;;;;;;;5.05;1.85;;;;;;;12.47;74.23;100626.78;10235707;28;20054;-73
2022/09/20 01:27:53;;;;;;;7.95;1.65;;;;;;;12.40;74.37;100631.81;10242429;28;20054;-74
2022/09/20 01:32:55;;;;;;;4.95;2.00;;;;;;;12.46;73.95;100638.44;10269785;28;20355;-76
2022/09/20 01:38:34;;;;;;;5.78;1.77;;;;;;;12.48;73.28;100642.69;10246902;28;20822;-73
2022/09/20 01:43:50;;;;;;;5.40;2.08;;;;;;;12.00;75.48;100638.53;10278936;28;20050;-75
2022/09/20 01:49:02;;;;;;;6.85;2.50;;;;;;;12.18;74.43;100627.38;10239336;28;20079;-73
2022/09/20 01:54:25;;;;;;;4.57;1.55;;;;;;;12.17;75.02;100628.31;10243920;28;20058;-73
2022/09/20 01:59:48;;;;;;;6.75;2.28;;;;;;;12.15;74.69;100627.63;10237700;28;20054;-74
2022/09/20 02:04:58;;;;;;;6.75;1.90;;;;;;;12.23;74.30;100622.47;10265540;28;20058;-75
2022/09/20 02:10:18;;;;;;;7.32;2.53;;;;;;;12.33;74.37;100619.94;10284692;28;20106;-76
2022/09/20 02:15:37;;;;;;;5.22;1.98;;;;;;;12.33;74.12;100620.75;10289349;28;20051;-80
2022/09/20 02:20:59;;;;;;;5.05;2.35;;;;;;;12.32;73.99;100627.06;10287584;28;20138;-77
2022/09/20 02:26:13;;;;;;;7.72;2.13;;;;;;;12.28;74.66;100620.31;10280845;28;20062;-72
2022/09/20 02:31:35;;;;;;;5.47;1.80;;;;;;;12.12;75.50;100622.53;10283205;28;20069;-72
2022/09/20 02:37:03;;;;;;;5.45;1.83;;;;;;;12.12;75.82;100627.88;10243977;28;20049;-72
2022/09/20 02:42:16;;;;;;;5.78;2.20;;;;;;;12.16;75.40;100627.50;10255938;28;20051;-74
2022/09/20 02:47:26;;;;;;;6.40;1.95;;;;;;;12.09;75.43;100626.28;10243256;28;20055;-74
2022/09/20 02:52:42;;;;;;;5.45;2.17;;;;;;;12.02;75.79;100631.28;10268750;28;20131;-76
2022/09/20 02:58:17;;;;;;;8.23;2.05;;;;;;;11.98;76.10;100634.28;10249139;28;20066;-73
2022/09/20 03:03:56;;;;;;;6.18;1.88;;;;;;;11.99;76.37;100636.88;10239888;28;20082;-75
2022/09/20 03:09:24;;;;;;;7.05;1.90;;;;;;;11.99;75.97;100636.88;10244589;28;20888;-72
2022/09/20 03:14:32;;;;;;;5.32;2.08;;;;;;;11.96;76.30;100626.41;10235799;28;20047;-72
2022/09/20 03:20:05;;;;;;;7.75;2.70;;;;;;;11.79;76.42;100624.25;10261834;28;20031;-74
2022/09/20 03:25:38;;;;;;;5.68;2.67;;;;;;;11.85;76.56;100629.09;10258804;28;20495;-72
2022/09/20 03:30:59;;;;;;;6.22;3.13;;;;;;;11.83;76.28;100628.38;10239285;28;23209;-73
2022/09/20 03:36:28;;;;;;;7.25;2.20;;;;;;;11.82;76.45;100638.16;10242258;28;20502;-74
2022/09/20 03:42:22;;;;;;;6.32;2.42;;;;;;;11.80;76.33;100653.47;10238008;28;20051;-72
2022/09/20 03:47:53;;;;;;;3.70;2.38;;;;;;;11.79;76.53;100640.25;10181807;29;20277;-72
2022/09/20 03:53:32;;;;;;;5.10;2.30;;;;;;;11.68;76.42;100643.75;10231994;28;20070;-72
2022/09/20 03:58:55;;;;;;;6.05;2.25;;;;;;;11.80;75.93;100652.59;10235855;28;20057;-73
2022/09/20 04:04:10;;;;;;;8.05;2.70;;;;;;;11.80;75.57;100652.59;10240161;28;20055;-72
2022/09/20 04:09:40;;;;;;;8.25;2.15;;;;;;;11.83;75.21;100653.22;10243005;28;20069;-73
2022/09/20 04:14:53;;;;;;;5.15;1.80;;;;;;;11.82;74.87;100640.00;10234363;28;20145;-72
2022/09/20 04:20:04;;;;;;;4.95;1.95;;;;;;;11.90;74.71;100645.56;10235997;28;20430;-73
2022/09/20 04:25:16;;;;;;;7.40;2.65;;;;;;;11.83;73.42;100637.19;10238217;28;20050;-73
2022/09/20 04:30:21;;;;;;;10.27;3.40;;;;;;;11.70;73.64;100651.63;10238650;28;20097;-73
2022/09/20 04:41:19;;;;;;;9.27;2.67;;;;;;;11.80;73.56;100660.59;10235486;28;20058;-74
2022/09/20 04:46:50;;;;;;;6.68;2.00;;;;;;;11.65;73.78;100660.84;10261378;28;20265;-72
2022/09/20 04:52:30;;;;;;;12.10;3.63;;;;;;;11.56;74.80;100676.69;10247832;28;21249;-74
2022/09/20 04:58:11;;;;;;;7.82;2.80;;;;;;;11.47;76.03;100676.47;10223173;28;20059;-73
2022/09/20 05:03:57;;;;;;;5.63;2.67;;;;;;;11.59;76.26;100684.47;10244065;28;20061;-73
2022/09/20 05:09:41;;;;;;;6.25;3.00;;;;;;;11.71;75.90;100695.97;10225301;28;20054;-73
2022/09/20 05:14:52;;;;;;;6.25;3.22;;;;;;;11.72;75.22;100700.38;10226342;28;20051;-73
2022/09/20 05:20:24;;;;;;;7.20;2.53;;;;;;;11.86;74.91;100705.47;10227881;28;20282;-72
2022/09/20 05:25:51;;;;;;;7.30;3.05;;;;;;;12.02;74.03;100697.13;10229056;28;20043;-76
2022/09/20 05:30:59;;;;;;;6.75;2.80;;;;;;;12.10;73.68;100699.16;10230454;28;20046;-75
2022/09/20 05:36:13;;;;;;;5.68;3.38;;;;;;;12.13;73.32;100699.78;10232794;28;20696;-73
2022/09/20 05:41:41;;;;;;;9.20;4.25;;;;;;;12.14;73.10;100713.97;10224529;28;20059;-75
2022/09/20 05:47:10;;;;;;;8.73;4.40;;;;;;;12.18;73.24;100720.78;10236275;28;20039;-73
2022/09/20 05:52:52;;;;;;;7.88;5.07;;;;;;;12.22;73.52;100716.91;10234269;28;20070;-73
2022/09/20 05:58:09;;;;;;;8.88;4.90;;;;;;;12.16;73.05;100723.56;10230877;28;20066;-73
2022/09/20 06:03:22;;;;;;;9.32;4.30;;;;;;;12.07;73.78;100726.09;10243419;28;20089;-70
2022/09/20 06:08:39;;;;;;;8.52;5.80;;;;;;;12.23;73.97;100731.91;10235445;28;20073;-72
2022/09/20 06:13:48;;;;;;;8.77;5.13;;;;;;;12.34;73.68;100737.25;10236568;28;20050;-74
2022/09/20 06:19:18;;;;;;;7.15;5.07;;;;;;;12.30;73.62;100733.13;10277268;28;20066;-76
2022/09/20 06:24:31;;;;;;;11.38;6.50;;;;;;;12.43;73.14;100738.34;10280363;28;20389;-77
2022/09/20 06:29:37;;;;;;;9.27;6.45;;;;;;;12.48;72.54;100738.81;10263398;28;20055;-73
2022/09/20 06:34:38;;;;;;;12.02;6.57;;;;;;;12.56;72.38;100738.19;10231793;28;20050;-73
2022/09/20 06:45:04;;;;;;;11.25;6.22;;;;;;;12.74;71.87;100746.50;10232022;28;20401;-72
2022/09/20 06:50:13;;;;;;;9.75;6.18;;;;;;;12.77;71.39;100748.09;10231048;28;20067;-72
2022/09/20 06:55:20;;;;;;;9.52;6.72;;;;;;;12.76;71.75;100757.94;10232575;28;20061;-73
2022/09/20 07:00:24;;;;;;;15.02;7.45;;;;;;;12.78;71.54;100755.16;10228914;28;20133;-73
2022/09/20 07:05:25;;;;;;;12.13;6.90;;;;;;;13.06;71.81;100753.69;10231893;28;20058;-74
2022/09/20 07:10:27;;;;;;;10.15;6.47;;;;;;;12.98;70.68;100757.00;10229127;28;20450;-72
2022/09/20 07:15:31;;;;;;;11.65;6.47;;;;;;;13.16;71.36;100759.13;10233784;28;20058;-73
2022/09/20 07:20:32;;;;;;;9.37;6.30;;;;;;;13.29;70.56;100762.47;10233676;28;20059;-74
2022/09/20 07:25:35;;;;;;;8.73;5.78;;;;;;;13.37;68.96;100753.84;10230627;28;20294;-72
2022/09/20 07:30:37;;;;;;;10.10;5.55;;;;;;;13.40;68.84;100767.78;10233114;28;20066;-71
2022/09/20 07:35:40;;;;;;;11.68;5.65;;;;;;;13.30;69.31;100761.50;10231147;28;20066;-73
2022/09/20 07:40:42;;;;;;;10.25;5.85;;;;;;;13.40;68.69;100761.59;10241855;28;20402;-73
2022/09/20 07:45:43;;;;;;;8.25;5.55;;;;;;;13.46;69.47;100768.25;10223789;28;20051;-71
2022/09/20 07:50:52;;;;;;;9.18;4.78;;;;;;;13.70;69.30;100771.50;10231682;28;22199;-71
2022/09/20 07:56:10;;;;;;;7.35;4.75;;;;;;;14.29;66.30;100779.84;10226696;28;20055;-72
2022/09/20 08:01:12;;;;;;;10.80;4.80;;;;;;;14.47;64.48;100782.72;10231345;28;20051;-73
2022/09/20 08:06:15;;;;;;;7.05;3.60;;;;;;;14.54;62.54;100777.69;10234830;28;20651;-73
2022/09/20 08:11:19;;;;;;;5.70;3.60;;;;;;;14.60;63.05;100785.19;10224998;28;20479;-72
2022/09/20 08:16:20;;;;;;;6.30;2.97;;;;;;;14.60;60.72;100787.84;10228480;28;20062;-73
2022/09/20 08:21:23;;;;;;;7.82;2.60;;;;;;;14.77;59.50;100784.56;10249732;28;20054;-69
2022/09/20 08:26:27;;;;;;;4.90;3.15;;;;;;;15.28;59.99;100787.13;10232997;28;20059;-71
2022/09/20 08:31:34;;;;;;;5.90;2.47;;;;;;;15.66;57.34;100796.16;10234798;28;20047;-73
2022/09/20 08:36:40;;;;;;;4.40;2.40;;;;;;;15.97;56.76;100794.13;10223572;28;21731;-74
2022/09/20 08:41:47;;;;;;;4.38;1.98;;;;;;;16.55;53.38;100790.38;10221329;28;20066;-72
2022/09/20 08:46:53;;;;;;;5.47;2.15;;;;;;;17.20;51.15;100785.88;10221581;28;20054;-73
2022/09/20 08:51:57;;;;;;;4.43;2.45;;;;;;;17.57;51.26;100792.94;10224539;28;20042;-70
2022/09/20 08:57:19;;;;;;;3.67;2.03;;;;;;;17.67;50.77;100791.84;10221631;28;20051;-73
2022/09/20 09:02:21;;;;;;;6.32;2.72;;;;;;;17.57;50.70;100791.09;10218771;28;20137;-73
2022/09/20 09:07:24;;;;;;;6.53;3.00;;;;;;;17.43;50.49;100791.63;10196259;28;20059;-72
2022/09/20 09:12:29;;;;;;;4.68;2.40;;;;;;;16.87;51.31;100802.53;10179420;28;20563;-74
2022/09/20 09:17:30;;;;;;;5.97;2.92;;;;;;;16.93;52.01;100790.31;10225678;28;20055;-72
2022/09/20 09:22:39;;;;;;;6.65;2.70;;;;;;;17.31;49.73;100799.94;10231418;28;20142;-72
2022/09/20 09:27:53;;;;;;;4.90;2.03;;;;;;;17.08;49.37;100788.81;10228589;28;20438;-70
2022/09/20 09:33:26;;;;;;;5.28;2.25;;;;;;;17.32;49.37;100790.03;10227415;28;20058;-73
2022/09/20 09:38:30;;;;;;;6.13;1.92;;;;;;;18.11;47.24;100782.06;10230122;28;20050;-70
2022/09/20 09:43:36;;;;;;;3.80;1.30;;;;;;;19.51;42.84;100779.75;10225560;28;20513;-73
2022/09/20 09:48:37;;;;;;;4.97;1.05;;;;;;;21.01;40.48;100772.69;10231995;28;20201;-71
2022/09/20 09:53:42;;;;;;;3.92;1.15;;;;;;;20.53;39.92;100777.31;10224810;28;20454;-71
2022/09/20 09:58:57;;;;;;;5.30;1.30;;;;;;;19.63;42.59;100786.47;10226931;28;20609;-72
2022/09/20 10:04:11;;;;;;;5.80;2.03;;;;;;;18.99;43.16;100770.94;10224603;28;20050;-72
2022/09/20 10:09:41;;;;;;;7.43;1.10;;;;;;;20.31;40.09;100777.09;10228708;28;20101;-71
2022/09/20 10:14:51;;;;;;;6.18;2.10;;;;;;;25.44;32.00;100773.31;10225109;28;20163;-72
2022/09/20 10:20:19;;;;;;;8.20;1.77;;;;;;;25.91;30.28;100767.81;10227882;28;20050;-73
2022/09/20 10:25:38;;;;;;;3.50;1.23;;;;;;;25.22;31.45;100756.28;10226803;28;20058;-73
2022/09/20 10:31:12;;;;;;;3.00;1.55;;;;;;;26.45;29.15;100736.63;10240516;28;20078;-74
2022/09/20 10:36:39;;;;;;;2.67;1.25;;;;;;;29.49;25.84;100734.94;10231393;28;20150;-73
2022/09/20 10:48:17;;;;;;;3.90;1.20;;;;;;;23.50;31.38;100733.53;10224773;28;20081;-72
2022/09/20 10:53:42;;;;;;;3.53;1.13;;;;;;;22.32;34.80;100739.16;10216304;28;20129;-71
2022/09/20 10:58:53;;;;;;;2.92;0.80;;;;;;;30.63;22.45;100732.78;10225988;28;20361;-72
2022/09/20 11:04:25;;;;;;;2.85;0.70;;;;;;;35.02;18.31;100726.75;10236189;28;20043;-72
2022/09/20 11:09:34;;;;;;;2.35;0.90;;;;;;;37.47;16.24;100727.09;10227598;28;20046;-69
2022/09/20 11:15:07;;;;;;;3.63;0.70;;;;;;;38.80;14.00;100723.84;10252271;28;20058;-75
2022/09/20 11:20:19;;;;;;;2.83;1.02;;;;;;;38.05;14.75;100714.28;10224956;28;20075;-76
2022/09/20 11:25:44;;;;;;;3.10;1.05;;;;;;;33.29;18.77;100734.00;10225099;28;20064;-73
2022/09/20 11:31:08;;;;;;;2.85;1.40;;;;;;;27.80;24.77;100745.59;10220058;28;20070;-74
2022/09/20 11:36:18;;;;;;;3.20;0.90;;;;;;;24.22;30.78;100756.81;10223460;28;20047;-74
2022/09/20 11:41:25;;;;;;;3.20;0.80;;;;;;;22.32;35.12;100750.84;10222302;28;20085;-73
2022/09/20 11:46:35;;;;;;;4.10;0.90;;;;;;;21.06;39.34;100758.59;10223539;28;20491;-74
2022/09/20 11:52:14;;;;;;;3.65;0.80;;;;;;;20.17;41.38;100763.47;10221036;28;20058;-72
2022/09/20 11:57:16;;;;;;;2.63;0.90;;;;;;;19.74;42.03;100763.69;10224852;28;20046;-70
2022/09/20 12:02:41;;;;;;;2.25;0.77;;;;;;;19.64;41.89;100755.78;10220695;28;20403;-70
2022/09/20 12:07:43;;;;;;;2.45;0.85;;;;;;;20.55;40.81;100750.09;10224427;28;20806;-72
2022/09/20 12:12:53;;;;;;;2.25;0.65;;;;;;;30.48;24.82;100741.53;10226868;28;20061;-71
2022/09/20 12:17:54;;;;;;;2.13;0.57;;;;;;;33.65;19.10;100731.47;10222202;28;20046;-70
2022/09/20 12:23:41;;;;;;;3.07;1.03;;;;;;;33.40;18.33;100734.88;10223229;28;20042;-71
2022/09/20 12:28:48;;;;;;;2.95;0.50;;;;;;;30.35;21.42;100730.81;10232100;28;20069;-72
2022/09/20 12:34:08;;;;;;;2.40;0.60;;;;;;;25.43;27.54;100746.28;10225529;28;20043;-71
2022/09/20 12:39:10;;;;;;;2.63;0.90;;;;;;;22.68;32.32;100738.34;10225197;28;20065;-72
2022/09/20 12:44:40;;;;;;;3.83;0.75;;;;;;;19.65;37.23;100752.06;10224020;28;20363;-72
2022/09/20 12:55:05;;;;;;;2.50;1.10;;;;;;;18.23;41.24;100743.03;10221452;28;20069;-73
2022/09/20 13:00:30;;;;;;;4.25;1.10;;;;;;;18.36;41.32;100732.66;10222343;28;20058;-70
2022/09/20 13:05:41;;;;;;;4.78;1.10;;;;;;;18.93;41.94;100736.56;10217686;28;20141;-70
2022/09/20 13:10:48;;;;;;;2.80;0.77;;;;;;;25.49;31.22;100737.25;10225070;28;20106;-73
2022/09/20 13:15:52;;;;;;;3.58;0.90;;;;;;;31.97;21.52;100740.50;10221811;28;20047;-71
2022/09/20 13:20:55;;;;;;;4.18;0.80;;;;;;;33.13;19.80;100733.84;10222497;28;20503;-73
2022/09/20 13:25:57;;;;;;;2.45;0.93;;;;;;;32.68;20.19;100735.03;10225981;28;20572;-70
2022/09/20 13:31:25;;;;;;;3.45;0.82;;;;;;;33.02;19.66;100723.81;10222587;28;20062;-74
2022/09/20 13:36:29;;;;;;;2.35;0.50;;;;;;;29.03;23.93;100731.84;10222725;28;20129;-73
2022/09/20 13:41:31;;;;;;;2.67;1.02;;;;;;;25.95;27.62;100728.16;10224467;28;20055;-73
2022/09/20 13:46:32;;;;;;;4.15;0.80;;;;;;;24.54;30.08;100732.66;10221387;28;20055;-73
2022/09/20 13:51:34;;;;;;;2.33;1.02;;;;;;;23.86;31.66;100725.22;10222510;28;20057;-70
2022/09/20 13:56:36;;;;;;;;;;;;;;;23.57;30.87;100727.09;10221900;28;20066;-70
2022/09/20 14:01:43;;;;;;;2.50;0.90;;;;;;;22.92;31.81;100705.44;10229676;28;19978;-71
2022/09/20 14:06:44;;;;;;;2.78;1.02;;;;;;;22.10;33.87;100709.25;10219413;28;21040;-72
2022/09/20 14:11:46;;;;;;;3.83;1.08;;;;;;;21.43;35.00;100713.66;10232804;28;20081;-72
2022/09/20 14:16:49;;;;;;;2.67;1.13;;;;;;;21.08;36.50;100710.56;10241008;28;20057;-69
2022/09/20 14:21:50;;;;;;;2.33;0.90;;;;;;;20.52;37.09;100701.78;10234085;28;20062;-72
2022/09/20 14:27:02;;;;;;;5.00;1.08;;;;;;;20.41;38.55;100713.84;10226818;28;20051;-70
2022/09/20 14:32:13;;;;;;;2.55;1.00;;;;;;;20.44;38.19;100713.50;10233898;28;20039;-71
2022/09/20 14:37:39;;;;;;;2.65;1.17;;;;;;;20.16;39.31;100713.94;10224808;28;20047;-75
2022/09/20 14:42:45;;;;;;;3.00;1.10;;;;;;;19.98;39.58;100707.94;10223352;28;20703;-72
2022/09/20 14:47:54;;;;;;;3.60;1.00;;;;;;;20.00;40.25;100706.75;10240733;28;20066;-70
2022/09/20 14:53:20;;;;;;;3.00;0.90;;;;;;;19.58;39.76;100706.00;10240959;28;20058;-72
2022/09/20 14:58:23;;;;;;;2.55;0.80;;;;;;;19.24;40.69;100700.78;10225633;28;20063;-70
2022/09/20 15:03:31;;;;;;;2.35;0.73;;;;;;;18.71;39.80;100711.03;10231012;28;20051;-73
2022/09/20 15:08:34;;;;;;;2.80;0.68;;;;;;;18.28;40.78;100705.66;10236292;28;20055;-73
2022/09/20 15:13:35;;;;;;;3.55;1.30;;;;;;;17.90;41.80;100690.88;10228423;28;20778;-74
2022/09/20 15:18:41;;;;;;;1.70;0.70;;;;;;;17.70;42.09;100701.84;10231935;28;20062;-74
2022/09/20 15:23:43;;;;;;;1.10;0.70;;;;;;;17.56;42.94;100694.34;10230291;28;20074;-74
2022/09/20 15:28:44;;;;;;;2.42;0.90;;;;;;;17.69;43.50;100693.94;10225429;28;20754;-72
2022/09/20 15:33:45;;;;;;;2.55;0.68;;;;;;;17.37;44.46;100698.06;10234097;28;20059;-73
2022/09/20 15:38:47;;;;;;;2.10;0.50;;;;;;;17.48;43.89;100706.75;10231768;28;20284;-72
2022/09/20 15:43:49;;;;;;;1.00;0.60;;;;;;;17.55;42.72;100700.72;10227449;28;20059;-72
2022/09/20 15:48:50;;;;;;;1.90;0.40;;;;;;;17.57;42.67;100704.94;10232208;28;20055;-76
2022/09/20 15:53:57;;;;;;;1.63;0.70;;;;;;;17.34;43.46;100715.41;10228898;28;20062;-75
2022/09/20 15:59:04;;;;;;;2.05;0.50;;;;;;;17.14;44.83;100706.63;10233727;28;20630;-74
2022/09/20 16:04:07;;;;;;;2.42;0.77;;;;;;;17.03;44.87;100715.81;10235944;28;20046;-74
2022/09/20 16:09:09;;;;;;;3.20;0.43;;;;;;;17.02;43.89;100719.47;10225880;28;20077;-76
2022/09/20 16:14:10;;;;;;;2.00;0.25;;;;;;;16.54;44.93;100718.84;10228913;28;20039;-74
2022/09/20 16:19:21;;;;;;;1.95;0.50;;;;;;;16.34;46.50;100736.88;10224946;28;20059;-72
2022/09/20 16:24:24;;;;;;;2.90;0.45;;;;;;;16.25;46.35;100738.63;10222852;28;20228;-77
2022/09/20 16:29:28;;;;;;;2.10;0.50;;;;;;;16.41;47.16;100747.91;10224200;28;20062;-75
2022/09/20 16:34:33;;;;;;;1.55;0.57;;;;;;;16.51;47.64;100747.81;10222370;28;20054;-72
2022/09/20 16:39:35;;;;;;;1.20;0.40;;;;;;;16.52;47.50;100750.38;10222994;28;20051;-73
2022/09/20 16:44:38;;;;;;;1.80;0.77;;;;;;;16.58;47.46;100749.75;10217719;28;20063;-75
2022/09/20 16:49:39;;;;;;;1.23;0.80;;;;;;;16.66;48.23;100759.75;10216187;28;20737;-76
2022/09/20 16:54:41;;;;;;;3.58;0.70;;;;;;;16.66;47.63;100756.22;10211639;28;20088;-76
2022/09/20 16:59:43;;;;;;;1.83;0.85;;;;;;;16.66;47.89;100762.44;10209599;28;20558;-74
2022/09/20 17:04:44;;;;;;;2.40;0.70;;;;;;;16.63;49.17;100769.97;10215859;28;20341;-74
2022/09/20 17:09:45;;;;;;;2.30;0.80;;;;;;;16.85;52.36;100764.16;10218432;28;20055;-75
2022/09/20 17:14:47;;;;;;;3.03;0.70;;;;;;;16.92;53.13;100773.34;10219811;28;20078;-77
2022/09/20 17:19:48;;;;;;;3.67;1.08;;;;;;;16.92;50.31;100773.34;10214931;28;20062;-73
2022/09/20 17:24:49;;;;;;;2.28;0.98;;;;;;;16.54;50.63;100775.25;10218166;28;20131;-77
2022/09/20 17:29:51;;;;;;;1.77;0.50;;;;;;;16.30;49.79;100793.75;10220760;28;20043;-74
2022/09/20 17:34:52;;;;;;;3.47;0.90;;;;;;;16.04;51.54;100794.41;10219803;28;20047;-73
2022/09/20 17:39:53;;;;;;;0.85;0.47;;;;;;;16.04;52.10;100803.28;10233953;28;20105;-73
2022/09/20 17:44:55;;;;;;;2.65;0.77;;;;;;;16.00;52.19;100814.47;10233085;28;20059;-74
2022/09/20 17:49:56;;;;;;;3.00;0.90;;;;;;;15.94;52.30;100818.56;10231735;28;20062;-79
2022/09/20 17:54:57;;;;;;;1.45;0.57;;;;;;;15.77;51.08;100825.50;10249226;28;20058;-78
2022/09/20 17:59:58;;;;;;;1.83;1.08;;;;;;;15.58;53.16;100837.09;10261137;28;20061;-79
2022/09/20 18:05:00;;;;;;;2.53;1.05;;;;;;;15.73;53.27;100834.84;10237201;28;20055;-75
2022/09/20 18:10:01;;;;;;;1.85;0.98;;;;;;;15.79;53.01;100834.28;10224490;28;20055;-76
2022/09/20 18:15:03;;;;;;;3.78;1.20;;;;;;;15.83;52.80;100843.75;10240554;28;20050;-75
2022/09/20 18:20:05;;;;;;;1.65;0.80;;;;;;;15.79;53.07;100845.03;10222364;28;20055;-78
2022/09/20 18:25:06;;;;;;;2.78;1.10;;;;;;;15.84;53.18;100850.00;10225627;28;20066;-73
2022/09/20 18:30:08;;;;;;;2.65;1.25;;;;;;;15.79;52.77;100863.81;10224231;28;20050;-76
2022/09/20 18:35:10;;;;;;;1.45;0.60;;;;;;;15.67;53.26;100865.78;10226529;28;21489;-78
2022/09/20 18:40:11;;;;;;;3.05;0.70;;;;;;;15.69;53.82;100871.84;10229323;28;20538;-72
2022/09/20 18:45:13;;;;;;;3.25;2.05;;;;;;;15.65;53.68;100874.97;10230415;28;20097;-71
2022/09/20 18:50:14;;;;;;;5.80;4.80;;;;;;;15.61;54.37;100889.66;10244255;28;20545;-74
2022/09/20 18:55:16;;;;;;;5.63;4.68;;;;;;;15.59;54.50;100886.28;10232645;28;20058;-74
2022/09/20 19:00:17;;;;;;;3.33;1.58;;;;;;;15.52;54.99;100884.16;10230036;28;20706;-72
2022/09/20 19:05:27;;;;;;;2.72;1.10;;;;;;;15.45;54.69;100895.59;10230393;28;20047;-76
2022/09/20 19:10:47;;;;;;;2.95;1.33;;;;;;;15.45;54.02;100903.63;10231775;28;20509;-76
2022/09/20 19:15:55;;;;;;;3.40;0.85;;;;;;;15.38;54.06;100912.22;10227396;28;20055;-75
2022/09/20 19:21:05;;;;;;;2.10;1.13;;;;;;;15.33;54.55;100919.00;10228623;28;20122;-76
2022/09/20 19:26:22;;;;;;;2.92;1.25;;;;;;;15.36;54.91;100921.41;10227571;28;20043;-73
2022/09/20 19:31:32;;;;;;;3.28;1.45;;;;;;;15.35;55.34;100933.09;10229025;28;20051;-77
2022/09/20 19:36:56;;;;;;;2.63;1.33;;;;;;;15.19;55.77;100933.63;10232097;28;20050;-75
2022/09/20 19:42:18;;;;;;;5.18;2.13;;;;;;;15.12;56.34;100944.06;10225784;28;20050;-76
2022/09/20 19:47:36;;;;;;;3.25;1.83;;;;;;;15.15;56.80;100933.06;10243881;28;20079;-75
2022/09/20 19:52:40;;;;;;;3.03;1.17;;;;;;;15.19;56.30;100945.22;10228737;28;20153;-74
2022/09/20 19:57:45;;;;;;;3.05;1.17;;;;;;;15.19;56.38;100931.81;10228581;28;20065;-74
2022/09/20 20:02:47;;;;;;;2.88;1.20;;;;;;;15.19;56.94;100937.19;10228474;28;20399;-78
2022/09/20 20:08:06;;;;;;;2.33;1.35;;;;;;;15.26;56.73;100950.03;10232589;28;20058;-72
2022/09/20 20:19:10;;;;;;;3.35;1.73;;;;;;;15.02;57.38;100964.63;10256340;28;20055;-83
2022/09/20 20:24:24;;;;;;;4.72;1.23;;;;;;;14.92;57.69;100956.56;10246290;28;20141;-79
2022/09/20 20:29:25;;;;;;;4.38;1.10;;;;;;;14.86;58.02;100967.78;10237174;28;20150;-77
2022/09/20 20:34:27;;;;;;;2.08;1.15;;;;;;;14.77;58.12;100958.75;10241280;28;20063;-75
2022/09/20 20:39:30;;;;;;;4.57;1.27;;;;;;;14.77;58.58;100973.97;10246325;28;20130;-79
2022/09/20 20:44:35;;;;;;;2.72;1.77;;;;;;;14.67;59.71;100976.59;10268521;28;20043;-76
2022/09/20 20:49:37;;;;;;;3.97;2.20;;;;;;;14.53;61.89;100979.56;10238096;28;20054;-75
2022/09/20 20:54:38;;;;;;;7.10;3.33;;;;;;;14.33;63.27;100984.81;10243221;28;20055;-77
2022/09/20 20:59:40;;;;;;;5.32;2.95;;;;;;;14.38;63.90;100982.59;10250222;28;20069;-77
2022/09/20 21:04:41;;;;;;;3.13;2.60;;;;;;;14.40;64.83;100987.81;10246900;28;20069;-79
2022/09/20 21:09:43;;;;;;;4.10;2.55;;;;;;;14.39;65.24;100989.63;10241058;28;20050;-74
2022/09/20 21:14:44;;;;;;;4.60;2.20;;;;;;;14.43;65.79;100987.56;10245205;28;20083;-77
2022/09/20 21:19:45;;;;;;;3.47;2.28;;;;;;;14.27;65.93;100985.31;10242131;28;20047;-77
2022/09/20 21:24:47;;;;;;;4.35;2.90;;;;;;;14.28;66.41;100985.19;10238540;28;20062;-78
2022/09/20 21:29:48;;;;;;;4.70;2.47;;;;;;;14.24;66.84;100989.09;10243384;28;20486;-76
2022/09/20 21:34:49;;;;;;;11.48;9.05;;;;;;;14.31;67.02;100990.28;10249874;28;20078;-75
2022/09/20 21:39:53;;;;;;;7.32;5.60;;;;;;;14.26;66.71;100995.19;10238368;28;20497;-74
2022/09/20 21:44:55;;;;;;;5.83;3.80;;;;;;;14.24;66.96;100986.44;10262435;28;20206;-76
2022/09/20 21:49:56;;;;;;;3.65;2.97;;;;;;;14.17;67.24;100995.94;10244727;28;20461;-77
2022/09/20 21:54:57;;;;;;;5.38;3.40;;;;;;;14.16;68.65;101002.31;10243187;28;20054;-74
2022/09/20 21:59:59;;;;;;;6.25;3.60;;;;;;;14.06;67.56;100999.53;10259011;28;20046;-80
2022/09/20 22:05:01;;;;;;;4.18;2.63;;;;;;;13.96;68.69;101006.63;10276801;28;20122;-77
2022/09/20 22:10:03;;;;;;;4.68;2.60;;;;;;;13.92;68.38;101013.22;10285945;28;20055;-77
2022/09/20 22:15:05;;;;;;;4.97;3.08;;;;;;;13.85;68.51;101018.22;10262640;28;20142;-73
2022/09/20 22:20:07;;;;;;;5.75;2.35;;;;;;;13.70;69.22;101016.81;10251842;28;20064;-75
2022/09/20 22:25:08;;;;;;;3.70;2.30;;;;;;;13.65;69.02;101016.34;10252007;28;20058;-73
2022/09/20 22:30:10;;;;;;;3.03;2.30;;;;;;;13.68;69.13;101005.41;10261214;28;20038;-77
2022/09/20 22:35:13;;;;;;;3.25;2.63;;;;;;;13.64;69.56;101020.00;10290807;28;20063;-72
2022/09/20 22:40:14;;;;;;;4.22;2.75;;;;;;;13.63;70.60;101018.28;10264002;28;22380;-74
2022/09/20 22:45:15;;;;;;;5.60;3.05;;;;;;;13.50;70.27;101013.94;10250832;28;20055;-76
2022/09/20 22:50:17;;;;;;;5.13;3.00;;;;;;;13.33;71.02;101028.63;10245223;28;20069;-75
2022/09/20 22:55:18;;;;;;;4.93;3.15;;;;;;;13.13;71.68;101016.81;10263029;28;20071;-75
2022/09/20 23:00:19;;;;;;;6.35;3.20;;;;;;;13.00;72.73;101027.66;10257932;28;20052;-76
2022/09/20 23:05:21;;;;;;;5.40;3.47;;;;;;;12.90;73.41;101030.19;10255456;28;20242;-73
2022/09/20 23:10:22;;;;;;;7.28;3.60;;;;;;;12.79;74.52;101030.19;10249647;28;20051;-74
2022/09/20 23:15:24;;;;;;;4.82;3.67;;;;;;;12.81;74.43;101028.22;10257562;28;20071;-75
2022/09/20 23:20:25;;;;;;;5.63;3.88;;;;;;;12.80;75.30;101031.03;10251647;28;20073;-74
2022/09/20 23:25:26;;;;;;;4.65;3.55;;;;;;;12.96;73.79;101026.19;10249680;28;20061;-75
2022/09/20 23:30:30;;;;;;;5.07;3.97;;;;;;;12.97;73.50;101033.25;10252313;28;20062;-76
2022/09/20 23:35:33;;;;;;;6.13;3.80;;;;;;;12.95;74.25;101027.16;10247638;28;20058;-74
2022/09/20 23:40:34;;;;;;;5.43;3.30;;;;;;;12.92;74.49;101024.72;10248098;28;20057;-76
2022/09/20 23:45:35;;;;;;;4.10;2.80;;;;;;;12.91;73.62;101039.06;10254146;28;20126;-76
2022/09/20 23:50:36;;;;;;;6.13;3.22;;;;;;;12.76;74.00;101014.41;10252952;28;20074;-74
2022/09/20 23:55:38;;;;;;;4.85;3.03;;;;;;;12.74;74.85;101021.66;10257834;28;20055;-76
